Mt Tanja Jacob — A8YR7 — position and weather

sailwx.info

Track history (hours):
 
Tides and Currents Weather Stations Pressure Air Temp Water Temp Dewpoint Dewpoint Depression Visibility Wind Speed Wind Dir Waves Ship Positions

Mt Tanja Jacob

Last reported at 2016-Apr-29 03:27 UTC. Time now 2016-May-03 04:56 UTC.
Position N 34°44' E 027°21'.

Length 227 m; draft 8.7 m.

Type: Ship. MMSI: 636092217.

Date/timePositionNaut miles runAvg speedWind from/ knotsBaromVisibWave heightAir tempDewpointWater temp
2016-Apr-29 03:27N 34°44' E 027°21'9410.5
2016-Apr-28 18:33N 34°03' E 029°04'1010.3
2016-Apr-28 17:32N 33°59' E 029°15'23910.2
2016-Apr-27 18:05N 32°15' E 033°32'6 9.4
2016-Apr-27 17:26N 32°12' E 033°39'9 9.6
2016-Apr-27 16:32N 32°09' E 033°48'  
2016-Apr-25 07:33N 32°29' E 032°18'1412.7
2016-Apr-25 06:27N 32°32' E 032°02'1112.5
2016-Apr-25 05:32N 32°35' E 031°49'1812.8
2016-Apr-25 04:07N 32°39' E 031°28'813.2
2016-Apr-25 03:32N 32°41' E 031°19'1813.2
2016-Apr-25 02:11N 32°46' E 030°58'813.2
2016-Apr-25 01:33N 32°47' E 030°49'12812.8
2016-Apr-24 15:33N 33°20' E 028°21'1212.4
2016-Apr-24 14:33N 33°23' E 028°07'61812.9
2016-Apr-22 14:33N 35°59' E 015°60'5412.8
2016-Apr-22 10:21N 36°12' E 014°55'1012.5
2016-Apr-22 09:33N 36°15' E 014°43'1212.4
2016-Apr-22 08:33N 36°18' E 014°28'1212.2
2016-Apr-22 07:33N 36°21' E 014°14'1312.6
2016-Apr-22 06:33N 36°26' E 013°59'1312.6
2016-Apr-22 05:33N 36°31' E 013°45'  
Track history (hours):
 
Tides and Currents Weather Stations Pressure Air Temp Water Temp Dewpoint Dewpoint Depression Visibility Wind Speed Wind Dir Waves Ship Positions

Mt Tanja Jacob

Last reported at 2016-Apr-29 03:27 UTC. Time now 2016-May-03 04:56 UTC.
Position N 34°44' E 027°21'.

Length 227 m; draft 8.7 m.

Type: Ship. MMSI: 636092217.

Date/timePositionNaut miles runAvg speedWind from/ knotsBaromVisibWave heightAir tempDewpointWater temp
2016-Apr-29 03:27N 34°44' E 027°21'9410.5
2016-Apr-28 18:33N 34°03' E 029°04'1010.3
2016-Apr-28 17:32N 33°59' E 029°15'23910.2
2016-Apr-27 18:05N 32°15' E 033°32'6 9.4
2016-Apr-27 17:26N 32°12' E 033°39'9 9.6
2016-Apr-27 16:32N 32°09' E 033°48'  
2016-Apr-25 07:33N 32°29' E 032°18'1412.7
2016-Apr-25 06:27N 32°32' E 032°02'1112.5
2016-Apr-25 05:32N 32°35' E 031°49'1812.8
2016-Apr-25 04:07N 32°39' E 031°28'813.2
2016-Apr-25 03:32N 32°41' E 031°19'1813.2
2016-Apr-25 02:11N 32°46' E 030°58'813.2
2016-Apr-25 01:33N 32°47' E 030°49'12812.8
2016-Apr-24 15:33N 33°20' E 028°21'1212.4
2016-Apr-24 14:33N 33°23' E 028°07'61812.9
2016-Apr-22 14:33N 35°59' E 015°60'5412.8
2016-Apr-22 10:21N 36°12' E 014°55'1012.5
2016-Apr-22 09:33N 36°15' E 014°43'1212.4
2016-Apr-22 08:33N 36°18' E 014°28'1212.2
2016-Apr-22 07:33N 36°21' E 014°14'1312.6
2016-Apr-22 06:33N 36°26' E 013°59'1312.6
2016-Apr-22 05:33N 36°31' E 013°45'  

Dump ship's entire track history